sensor_id;sensor_type;location;lat;lon;timestamp;P1;durP1;ratioP1;P2;durP2;ratioP2
61911;SDS011;49973;52.084;5.412;2023-07-13T00:01:14;9.73;;;1.83;;
61911;SDS011;49973;52.084;5.412;2023-07-13T00:03:43;4.30;;;1.23;;
61911;SDS011;49973;52.084;5.412;2023-07-13T00:06:12;7.20;;;1.60;;
61911;SDS011;49973;52.084;5.412;2023-07-13T00:08:42;3.63;;;1.47;;
61911;SDS011;49973;52.084;5.412;2023-07-13T00:11:10;9.60;;;1.60;;
61911;SDS011;49973;52.084;5.412;2023-07-13T00:13:39;7.60;;;1.40;;
61911;SDS011;49973;52.084;5.412;2023-07-13T00:16:09;8.23;;;1.80;;
61911;SDS011;49973;52.084;5.412;2023-07-13T00:18:41;3.30;;;1.30;;
61911;SDS011;49973;52.084;5.412;2023-07-13T00:21:09;6.33;;;1.60;;
61911;SDS011;49973;52.084;5.412;2023-07-13T00:23:39;3.30;;;1.30;;
61911;SDS011;49973;52.084;5.412;2023-07-13T00:26:10;5.57;;;1.40;;
61911;SDS011;49973;52.084;5.412;2023-07-13T00:28:40;4.07;;;1.10;;
61911;SDS011;49973;52.084;5.412;2023-07-13T00:31:10;7.57;;;1.53;;
61911;SDS011;49973;52.084;5.412;2023-07-13T00:33:41;5.80;;;1.30;;
61911;SDS011;49973;52.084;5.412;2023-07-13T00:36:10;4.73;;;1.57;;
61911;SDS011;49973;52.084;5.412;2023-07-13T00:38:39;2.13;;;1.10;;
61911;SDS011;49973;52.084;5.412;2023-07-13T00:41:10;6.87;;;1.70;;
61911;SDS011;49973;52.084;5.412;2023-07-13T00:43:39;13.97;;;1.70;;
61911;SDS011;49973;52.084;5.412;2023-07-13T00:48:59;5.70;;;1.40;;
61911;SDS011;49973;52.084;5.412;2023-07-13T00:51:31;6.23;;;1.70;;
61911;SDS011;49973;52.084;5.412;2023-07-13T00:54:06;8.17;;;1.53;;
61911;SDS011;49973;52.084;5.412;2023-07-13T00:56:38;2.00;;;1.17;;
61911;SDS011;49973;52.084;5.412;2023-07-13T00:59:08;5.60;;;1.23;;
61911;SDS011;49973;52.084;5.412;2023-07-13T01:01:39;7.27;;;1.30;;
61911;SDS011;49973;52.084;5.412;2023-07-13T01:04:11;8.43;;;2.00;;
61911;SDS011;49973;52.084;5.412;2023-07-13T01:06:40;4.73;;;1.37;;
61911;SDS011;49973;52.084;5.412;2023-07-13T01:09:13;7.73;;;1.30;;
61911;SDS011;49973;52.084;5.412;2023-07-13T01:11:44;7.40;;;1.90;;
61911;SDS011;49973;52.084;5.412;2023-07-13T01:14:13;2.73;;;1.30;;
61911;SDS011;49973;52.084;5.412;2023-07-13T01:16:44;3.77;;;1.50;;
61911;SDS011;49973;52.084;5.412;2023-07-13T01:19:20;6.20;;;1.80;;
61911;SDS011;49973;52.084;5.412;2023-07-13T01:22:05;6.80;;;1.13;;
61911;SDS011;49973;52.084;5.412;2023-07-13T01:24:36;5.73;;;1.57;;
61911;SDS011;49973;52.084;5.412;2023-07-13T01:27:05;3.93;;;1.80;;
61911;SDS011;49973;52.084;5.412;2023-07-13T01:29:36;10.07;;;1.73;;
61911;SDS011;49973;52.084;5.412;2023-07-13T01:32:09;8.97;;;1.87;;
61911;SDS011;49973;52.084;5.412;2023-07-13T01:34:40;2.50;;;1.50;;
61911;SDS011;49973;52.084;5.412;2023-07-13T01:37:11;4.83;;;1.70;;
61911;SDS011;49973;52.084;5.412;2023-07-13T01:39:40;5.77;;;1.50;;
61911;SDS011;49973;52.084;5.412;2023-07-13T01:42:09;7.20;;;1.43;;
61911;SDS011;49973;52.084;5.412;2023-07-13T01:44:37;3.07;;;1.67;;
61911;SDS011;49973;52.084;5.412;2023-07-13T01:47:07;8.70;;;1.70;;
61911;SDS011;49973;52.084;5.412;2023-07-13T01:49:36;6.37;;;2.13;;
61911;SDS011;49973;52.084;5.412;2023-07-13T01:52:05;7.37;;;1.70;;
61911;SDS011;49973;52.084;5.412;2023-07-13T01:54:36;7.33;;;1.73;;
61911;SDS011;49973;52.084;5.412;2023-07-13T01:57:05;7.10;;;1.60;;
61911;SDS011;49973;52.084;5.412;2023-07-13T01:59:33;7.40;;;1.63;;
61911;SDS011;49973;52.084;5.412;2023-07-13T02:02:02;5.83;;;1.83;;
61911;SDS011;49973;52.084;5.412;2023-07-13T02:04:31;5.60;;;1.20;;
61911;SDS011;49973;52.084;5.412;2023-07-13T02:07:00;3.67;;;1.30;;
61911;SDS011;49973;52.084;5.412;2023-07-13T02:09:28;3.47;;;1.40;;
61911;SDS011;49973;52.084;5.412;2023-07-13T02:11:59;5.63;;;1.73;;
61911;SDS011;49973;52.084;5.412;2023-07-13T02:14:33;4.23;;;1.47;;
61911;SDS011;49973;52.084;5.412;2023-07-13T02:17:01;6.63;;;1.83;;
61911;SDS011;49973;52.084;5.412;2023-07-13T02:19:30;4.93;;;2.00;;
61911;SDS011;49973;52.084;5.412;2023-07-13T02:21:59;5.00;;;1.47;;
61911;SDS011;49973;52.084;5.412;2023-07-13T02:24:28;5.60;;;1.90;;
61911;SDS011;49973;52.084;5.412;2023-07-13T02:26:56;5.70;;;1.67;;
61911;SDS011;49973;52.084;5.412;2023-07-13T02:29:26;11.00;;;2.17;;
61911;SDS011;49973;52.084;5.412;2023-07-13T02:31:55;3.50;;;1.30;;
61911;SDS011;49973;52.084;5.412;2023-07-13T02:34:24;4.83;;;1.63;;
61911;SDS011;49973;52.084;5.412;2023-07-13T02:36:52;7.10;;;2.20;;
61911;SDS011;49973;52.084;5.412;2023-07-13T02:39:21;7.00;;;2.20;;
61911;SDS011;49973;52.084;5.412;2023-07-13T02:41:50;5.47;;;1.77;;
61911;SDS011;49973;52.084;5.412;2023-07-13T02:44:18;8.13;;;1.90;;
61911;SDS011;49973;52.084;5.412;2023-07-13T02:46:48;5.23;;;1.57;;
61911;SDS011;49973;52.084;5.412;2023-07-13T02:49:17;4.97;;;1.90;;
61911;SDS011;49973;52.084;5.412;2023-07-13T02:51:45;4.80;;;1.70;;
61911;SDS011;49973;52.084;5.412;2023-07-13T02:54:14;6.83;;;2.27;;
61911;SDS011;49973;52.084;5.412;2023-07-13T02:56:43;5.40;;;2.00;;
61911;SDS011;49973;52.084;5.412;2023-07-13T02:59:11;9.53;;;2.40;;
61911;SDS011;49973;52.084;5.412;2023-07-13T03:01:40;5.53;;;2.40;;
61911;SDS011;49973;52.084;5.412;2023-07-13T03:04:10;9.80;;;2.70;;
61911;SDS011;49973;52.084;5.412;2023-07-13T03:06:40;138.87;;;14.43;;
61911;SDS011;49973;52.084;5.412;2023-07-13T03:09:08;6.60;;;2.03;;
61911;SDS011;49973;52.084;5.412;2023-07-13T03:11:44;8.83;;;1.77;;
61911;SDS011;49973;52.084;5.412;2023-07-13T03:14:27;6.67;;;1.97;;
61911;SDS011;49973;52.084;5.412;2023-07-13T03:16:55;8.63;;;2.10;;
61911;SDS011;49973;52.084;5.412;2023-07-13T03:19:29;4.73;;;2.10;;
61911;SDS011;49973;52.084;5.412;2023-07-13T03:21:58;9.97;;;2.87;;
61911;SDS011;49973;52.084;5.412;2023-07-13T03:24:26;6.07;;;2.30;;
61911;SDS011;49973;52.084;5.412;2023-07-13T03:26:57;4.87;;;1.73;;
61911;SDS011;49973;52.084;5.412;2023-07-13T03:29:26;7.70;;;2.23;;
61911;SDS011;49973;52.084;5.412;2023-07-13T03:31:54;8.10;;;2.40;;
61911;SDS011;49973;52.084;5.412;2023-07-13T03:34:23;5.30;;;2.20;;
61911;SDS011;49973;52.084;5.412;2023-07-13T03:36:54;7.03;;;2.37;;
61911;SDS011;49973;52.084;5.412;2023-07-13T03:39:23;6.80;;;2.07;;
61911;SDS011;49973;52.084;5.412;2023-07-13T03:41:54;12.20;;;2.40;;
61911;SDS011;49973;52.084;5.412;2023-07-13T03:44:23;6.40;;;2.60;;
61911;SDS011;49973;52.084;5.412;2023-07-13T03:46:55;6.70;;;2.53;;
61911;SDS011;49973;52.084;5.412;2023-07-13T03:49:23;9.37;;;2.63;;
61911;SDS011;49973;52.084;5.412;2023-07-13T03:51:54;7.93;;;2.53;;
61911;SDS011;49973;52.084;5.412;2023-07-13T03:54:23;12.67;;;2.83;;
61911;SDS011;49973;52.084;5.412;2023-07-13T03:56:52;5.83;;;2.20;;
61911;SDS011;49973;52.084;5.412;2023-07-13T03:59:21;11.37;;;3.10;;
61911;SDS011;49973;52.084;5.412;2023-07-13T04:01:51;11.47;;;2.97;;
61911;SDS011;49973;52.084;5.412;2023-07-13T04:04:19;12.97;;;2.87;;
61911;SDS011;49973;52.084;5.412;2023-07-13T04:06:48;11.70;;;2.93;;
61911;SDS011;49973;52.084;5.412;2023-07-13T04:09:21;9.90;;;3.47;;
61911;SDS011;49973;52.084;5.412;2023-07-13T04:11:50;11.93;;;3.00;;
61911;SDS011;49973;52.084;5.412;2023-07-13T04:14:18;9.00;;;2.63;;
61911;SDS011;49973;52.084;5.412;2023-07-13T04:16:47;14.43;;;3.23;;
61911;SDS011;49973;52.084;5.412;2023-07-13T04:19:16;13.53;;;3.57;;
61911;SDS011;49973;52.084;5.412;2023-07-13T04:21:45;11.43;;;2.63;;
61911;SDS011;49973;52.084;5.412;2023-07-13T04:24:14;14.87;;;3.53;;
61911;SDS011;49973;52.084;5.412;2023-07-13T04:26:44;10.17;;;3.03;;
61911;SDS011;49973;52.084;5.412;2023-07-13T04:29:12;7.40;;;2.80;;
61911;SDS011;49973;52.084;5.412;2023-07-13T04:31:42;13.90;;;3.00;;
61911;SDS011;49973;52.084;5.412;2023-07-13T04:34:10;11.17;;;3.20;;
61911;SDS011;49973;52.084;5.412;2023-07-13T04:36:39;10.13;;;3.37;;
61911;SDS011;49973;52.084;5.412;2023-07-13T04:39:08;7.37;;;2.67;;
61911;SDS011;49973;52.084;5.412;2023-07-13T04:41:36;11.57;;;2.20;;
61911;SDS011;49973;52.084;5.412;2023-07-13T04:44:06;9.37;;;2.00;;
61911;SDS011;49973;52.084;5.412;2023-07-13T04:46:35;7.53;;;2.60;;
61911;SDS011;49973;52.084;5.412;2023-07-13T04:49:04;14.97;;;3.40;;
61911;SDS011;49973;52.084;5.412;2023-07-13T04:51:33;9.97;;;2.83;;
61911;SDS011;49973;52.084;5.412;2023-07-13T04:54:01;16.30;;;3.03;;
61911;SDS011;49973;52.084;5.412;2023-07-13T04:56:31;17.47;;;3.50;;
61911;SDS011;49973;52.084;5.412;2023-07-13T04:59:00;7.27;;;3.20;;
61911;SDS011;49973;52.084;5.412;2023-07-13T05:01:30;9.53;;;3.10;;
61911;SDS011;49973;52.084;5.412;2023-07-13T05:03:59;13.07;;;3.87;;
61911;SDS011;49973;52.084;5.412;2023-07-13T05:06:28;9.00;;;2.87;;
61911;SDS011;49973;52.084;5.412;2023-07-13T05:08:57;16.03;;;2.87;;
61911;SDS011;49973;52.084;5.412;2023-07-13T05:11:26;16.53;;;3.73;;
61911;SDS011;49973;52.084;5.412;2023-07-13T05:13:54;11.20;;;3.73;;
61911;SDS011;49973;52.084;5.412;2023-07-13T05:16:23;14.40;;;3.63;;
61911;SDS011;49973;52.084;5.412;2023-07-13T05:18:53;12.77;;;3.67;;
61911;SDS011;49973;52.084;5.412;2023-07-13T05:21:22;12.30;;;3.23;;
61911;SDS011;49973;52.084;5.412;2023-07-13T05:23:51;20.70;;;4.10;;
61911;SDS011;49973;52.084;5.412;2023-07-13T05:26:19;10.53;;;3.40;;
61911;SDS011;49973;52.084;5.412;2023-07-13T05:28:48;17.93;;;3.60;;
61911;SDS011;49973;52.084;5.412;2023-07-13T05:31:17;22.03;;;4.63;;
61911;SDS011;49973;52.084;5.412;2023-07-13T05:33:45;10.97;;;3.20;;
61911;SDS011;49973;52.084;5.412;2023-07-13T05:36:16;20.07;;;4.73;;
61911;SDS011;49973;52.084;5.412;2023-07-13T05:38:44;18.97;;;3.87;;
61911;SDS011;49973;52.084;5.412;2023-07-13T05:41:13;13.23;;;3.73;;
61911;SDS011;49973;52.084;5.412;2023-07-13T05:43:41;15.53;;;4.50;;
61911;SDS011;49973;52.084;5.412;2023-07-13T05:46:10;15.73;;;4.60;;
61911;SDS011;49973;52.084;5.412;2023-07-13T05:48:39;9.40;;;4.70;;
61911;SDS011;49973;52.084;5.412;2023-07-13T05:51:08;16.00;;;5.37;;
61911;SDS011;49973;52.084;5.412;2023-07-13T05:53:38;12.07;;;4.83;;
61911;SDS011;49973;52.084;5.412;2023-07-13T05:56:07;12.80;;;4.60;;
61911;SDS011;49973;52.084;5.412;2023-07-13T05:58:36;13.60;;;4.87;;
61911;SDS011;49973;52.084;5.412;2023-07-13T06:01:06;16.53;;;5.23;;
61911;SDS011;49973;52.084;5.412;2023-07-13T06:03:38;19.00;;;4.90;;
61911;SDS011;49973;52.084;5.412;2023-07-13T06:06:07;13.93;;;5.60;;
61911;SDS011;49973;52.084;5.412;2023-07-13T06:08:39;12.47;;;5.57;;
61911;SDS011;49973;52.084;5.412;2023-07-13T06:11:10;19.83;;;5.37;;
61911;SDS011;49973;52.084;5.412;2023-07-13T06:13:42;18.57;;;5.60;;
61911;SDS011;49973;52.084;5.412;2023-07-13T06:16:10;13.07;;;5.33;;
61911;SDS011;49973;52.084;5.412;2023-07-13T06:18:40;16.10;;;5.50;;
61911;SDS011;49973;52.084;5.412;2023-07-13T06:21:09;15.13;;;6.03;;
61911;SDS011;49973;52.084;5.412;2023-07-13T06:23:41;11.87;;;5.40;;
61911;SDS011;49973;52.084;5.412;2023-07-13T06:26:10;11.97;;;5.30;;
61911;SDS011;49973;52.084;5.412;2023-07-13T06:28:39;18.87;;;5.20;;
61911;SDS011;49973;52.084;5.412;2023-07-13T06:31:09;17.23;;;6.10;;
61911;SDS011;49973;52.084;5.412;2023-07-13T06:33:39;13.70;;;6.40;;
61911;SDS011;49973;52.084;5.412;2023-07-13T06:36:08;14.80;;;5.33;;
61911;SDS011;49973;52.084;5.412;2023-07-13T06:38:37;13.70;;;5.07;;
61911;SDS011;49973;52.084;5.412;2023-07-13T06:41:08;10.80;;;5.93;;
61911;SDS011;49973;52.084;5.412;2023-07-13T06:43:38;19.03;;;6.20;;
61911;SDS011;49973;52.084;5.412;2023-07-13T06:46:06;14.23;;;6.07;;
61911;SDS011;49973;52.084;5.412;2023-07-13T06:48:35;19.43;;;5.63;;
61911;SDS011;49973;52.084;5.412;2023-07-13T06:51:03;15.33;;;6.07;;
61911;SDS011;49973;52.084;5.412;2023-07-13T06:53:32;11.87;;;5.83;;
61911;SDS011;49973;52.084;5.412;2023-07-13T06:56:01;27.40;;;7.47;;
61911;SDS011;49973;52.084;5.412;2023-07-13T06:58:31;16.93;;;7.13;;
61911;SDS011;49973;52.084;5.412;2023-07-13T07:01:01;12.47;;;7.10;;
61911;SDS011;49973;52.084;5.412;2023-07-13T07:03:31;13.30;;;5.97;;
61911;SDS011;49973;52.084;5.412;2023-07-13T07:06:00;15.43;;;6.80;;
61911;SDS011;49973;52.084;5.412;2023-07-13T07:08:30;17.70;;;6.20;;
61911;SDS011;49973;52.084;5.412;2023-07-13T07:10:58;19.57;;;7.23;;
61911;SDS011;49973;52.084;5.412;2023-07-13T07:13:27;14.10;;;6.23;;
61911;SDS011;49973;52.084;5.412;2023-07-13T07:15:58;15.43;;;6.17;;
61911;SDS011;49973;52.084;5.412;2023-07-13T07:18:27;23.30;;;6.80;;
61911;SDS011;49973;52.084;5.412;2023-07-13T07:20:56;17.87;;;7.07;;
61911;SDS011;49973;52.084;5.412;2023-07-13T07:23:25;16.33;;;6.07;;
61911;SDS011;49973;52.084;5.412;2023-07-13T07:25:53;20.87;;;6.20;;
61911;SDS011;49973;52.084;5.412;2023-07-13T07:28:22;15.23;;;5.50;;
61911;SDS011;49973;52.084;5.412;2023-07-13T07:30:54;13.00;;;5.20;;
61911;SDS011;49973;52.084;5.412;2023-07-13T07:33:28;10.93;;;5.43;;
61911;SDS011;49973;52.084;5.412;2023-07-13T07:35:57;14.87;;;6.10;;
61911;SDS011;49973;52.084;5.412;2023-07-13T07:38:28;12.83;;;5.47;;
61911;SDS011;49973;52.084;5.412;2023-07-13T07:40:57;17.57;;;6.17;;
61911;SDS011;49973;52.084;5.412;2023-07-13T07:43:28;15.00;;;5.13;;
61911;SDS011;49973;52.084;5.412;2023-07-13T07:45:58;16.53;;;6.33;;
61911;SDS011;49973;52.084;5.412;2023-07-13T07:48:30;11.90;;;5.73;;
61911;SDS011;49973;52.084;5.412;2023-07-13T07:50:59;15.43;;;6.33;;
61911;SDS011;49973;52.084;5.412;2023-07-13T07:53:28;15.57;;;7.20;;
61911;SDS011;49973;52.084;5.412;2023-07-13T07:56:00;17.40;;;6.03;;
61911;SDS011;49973;52.084;5.412;2023-07-13T07:58:48;19.20;;;6.10;;
61911;SDS011;49973;52.084;5.412;2023-07-13T08:01:20;16.13;;;5.10;;
61911;SDS011;49973;52.084;5.412;2023-07-13T08:03:53;7.20;;;5.60;;
61911;SDS011;49973;52.084;5.412;2023-07-13T08:06:24;15.63;;;5.00;;
61911;SDS011;49973;52.084;5.412;2023-07-13T08:08:56;13.23;;;5.50;;
61911;SDS011;49973;52.084;5.412;2023-07-13T08:11:25;15.97;;;6.33;;
61911;SDS011;49973;52.084;5.412;2023-07-13T08:13:56;15.60;;;5.90;;
61911;SDS011;49973;52.084;5.412;2023-07-13T08:16:25;15.80;;;6.47;;
61911;SDS011;49973;52.084;5.412;2023-07-13T08:18:56;20.33;;;5.67;;
61911;SDS011;49973;52.084;5.412;2023-07-13T08:21:24;11.00;;;4.23;;
61911;SDS011;49973;52.084;5.412;2023-07-13T08:23:53;15.33;;;4.57;;
61911;SDS011;49973;52.084;5.412;2023-07-13T08:26:22;13.07;;;4.40;;
61911;SDS011;49973;52.084;5.412;2023-07-13T08:28:50;17.47;;;4.27;;
61911;SDS011;49973;52.084;5.412;2023-07-13T08:31:21;8.70;;;3.80;;
61911;SDS011;49973;52.084;5.412;2023-07-13T08:33:50;10.20;;;3.97;;
61911;SDS011;49973;52.084;5.412;2023-07-13T08:36:20;13.07;;;3.60;;
61911;SDS011;49973;52.084;5.412;2023-07-13T08:38:48;11.13;;;2.57;;
61911;SDS011;49973;52.084;5.412;2023-07-13T08:41:17;8.10;;;2.80;;
61911;SDS011;49973;52.084;5.412;2023-07-13T08:43:47;4.67;;;1.83;;
61911;SDS011;49973;52.084;5.412;2023-07-13T08:46:20;4.57;;;2.40;;
61911;SDS011;49973;52.084;5.412;2023-07-13T08:48:56;6.47;;;2.37;;
61911;SDS011;49973;52.084;5.412;2023-07-13T08:51:30;9.40;;;2.60;;
61911;SDS011;49973;52.084;5.412;2023-07-13T08:54:09;5.67;;;2.13;;
61911;SDS011;49973;52.084;5.412;2023-07-13T08:56:46;6.47;;;2.43;;
61911;SDS011;49973;52.084;5.412;2023-07-13T08:59:16;8.30;;;2.30;;
61911;SDS011;49973;52.084;5.412;2023-07-13T09:04:45;13.10;;;2.00;;
61911;SDS011;49973;52.084;5.412;2023-07-13T09:07:21;3.93;;;1.87;;
61911;SDS011;49973;52.084;5.412;2023-07-13T09:09:59;4.93;;;1.93;;
61911;SDS011;49973;52.084;5.412;2023-07-13T09:12:39;4.60;;;2.20;;
61911;SDS011;49973;52.084;5.412;2023-07-13T09:15:24;5.10;;;1.97;;
61911;SDS011;49973;52.084;5.412;2023-07-13T09:17:59;6.83;;;2.10;;
61911;SDS011;49973;52.084;5.412;2023-07-13T09:20:34;10.07;;;1.90;;
61911;SDS011;49973;52.084;5.412;2023-07-13T09:23:07;5.50;;;2.10;;
61911;SDS011;49973;52.084;5.412;2023-07-13T09:25:41;9.47;;;2.17;;
61911;SDS011;49973;52.084;5.412;2023-07-13T09:28:15;4.60;;;2.47;;
61911;SDS011;49973;52.084;5.412;2023-07-13T09:30:49;6.30;;;2.20;;
61911;SDS011;49973;52.084;5.412;2023-07-13T09:33:21;6.30;;;2.17;;
61911;SDS011;49973;52.084;5.412;2023-07-13T09:35:50;3.07;;;1.90;;
61911;SDS011;49973;52.084;5.412;2023-07-13T09:38:21;5.57;;;2.13;;
61911;SDS011;49973;52.084;5.412;2023-07-13T09:40:56;3.17;;;1.93;;
61911;SDS011;49973;52.084;5.412;2023-07-13T09:43:29;7.00;;;2.00;;
61911;SDS011;49973;52.084;5.412;2023-07-13T09:45:58;4.57;;;2.03;;
61911;SDS011;49973;52.084;5.412;2023-07-13T09:48:32;6.00;;;2.07;;
61911;SDS011;49973;52.084;5.412;2023-07-13T09:51:06;7.03;;;1.60;;
61911;SDS011;49973;52.084;5.412;2023-07-13T09:53:43;6.23;;;1.53;;
61911;SDS011;49973;52.084;5.412;2023-07-13T09:56:19;6.20;;;1.90;;
61911;SDS011;49973;52.084;5.412;2023-07-13T09:58:49;8.60;;;1.90;;
61911;SDS011;49973;52.084;5.412;2023-07-13T10:01:30;3.03;;;1.53;;
61911;SDS011;49973;52.084;5.412;2023-07-13T10:04:00;6.40;;;2.13;;
61911;SDS011;49973;52.084;5.412;2023-07-13T10:06:30;4.07;;;1.53;;
61911;SDS011;49973;52.084;5.412;2023-07-13T10:09:00;3.33;;;1.83;;
61911;SDS011;49973;52.084;5.412;2023-07-13T10:11:29;2.37;;;1.60;;
61911;SDS011;49973;52.084;5.412;2023-07-13T10:14:00;2.70;;;2.10;;
61911;SDS011;49973;52.084;5.412;2023-07-13T10:16:31;2.70;;;1.80;;
61911;SDS011;49973;52.084;5.412;2023-07-13T10:19:02;9.73;;;2.30;;
61911;SDS011;49973;52.084;5.412;2023-07-13T10:21:41;3.93;;;2.60;;
61911;SDS011;49973;52.084;5.412;2023-07-13T10:24:21;6.03;;;1.87;;
61911;SDS011;49973;52.084;5.412;2023-07-13T10:26:52;3.77;;;1.50;;
61911;SDS011;49973;52.084;5.412;2023-07-13T10:29:25;4.13;;;2.33;;
61911;SDS011;49973;52.084;5.412;2023-07-13T10:32:07;5.27;;;2.10;;
61911;SDS011;49973;52.084;5.412;2023-07-13T10:34:42;8.43;;;2.13;;
61911;SDS011;49973;52.084;5.412;2023-07-13T10:37:15;5.67;;;1.57;;
61911;SDS011;49973;52.084;5.412;2023-07-13T10:39:49;2.07;;;1.50;;
61911;SDS011;49973;52.084;5.412;2023-07-13T10:42:23;5.93;;;2.13;;
61911;SDS011;49973;52.084;5.412;2023-07-13T10:44:55;3.03;;;1.73;;
61911;SDS011;49973;52.084;5.412;2023-07-13T10:47:24;7.40;;;1.80;;
61911;SDS011;49973;52.084;5.412;2023-07-13T10:49:56;6.27;;;1.60;;
61911;SDS011;49973;52.084;5.412;2023-07-13T10:52:40;2.00;;;1.10;;
61911;SDS011;49973;52.084;5.412;2023-07-13T10:58:12;3.43;;;1.47;;
61911;SDS011;49973;52.084;5.412;2023-07-13T11:00:46;4.00;;;1.43;;
61911;SDS011;49973;52.084;5.412;2023-07-13T11:03:17;1.30;;;0.90;;
61911;SDS011;49973;52.084;5.412;2023-07-13T11:05:49;4.97;;;1.83;;
61911;SDS011;49973;52.084;5.412;2023-07-13T11:08:34;3.70;;;1.10;;
61911;SDS011;49973;52.084;5.412;2023-07-13T11:14:09;5.67;;;1.83;;
61911;SDS011;49973;52.084;5.412;2023-07-13T11:16:54;6.30;;;1.93;;
61911;SDS011;49973;52.084;5.412;2023-07-13T11:19:25;3.20;;;1.97;;
61911;SDS011;49973;52.084;5.412;2023-07-13T11:22:02;6.93;;;1.77;;
61911;SDS011;49973;52.084;5.412;2023-07-13T11:24:52;4.30;;;1.70;;
61911;SDS011;49973;52.084;5.412;2023-07-13T11:27:37;2.80;;;1.40;;
61911;SDS011;49973;52.084;5.412;2023-07-13T11:30:21;6.63;;;1.87;;
61911;SDS011;49973;52.084;5.412;2023-07-13T11:33:03;4.30;;;1.77;;
61911;SDS011;49973;52.084;5.412;2023-07-13T11:35:42;6.75;;;2.20;;
61911;SDS011;49973;52.084;5.412;2023-07-13T11:38:30;5.80;;;1.60;;
61911;SDS011;49973;52.084;5.412;2023-07-13T11:41:02;5.30;;;1.50;;
61911;SDS011;49973;52.084;5.412;2023-07-13T11:43:35;8.63;;;1.37;;
61911;SDS011;49973;52.084;5.412;2023-07-13T11:46:19;2.53;;;1.23;;
61911;SDS011;49973;52.084;5.412;2023-07-13T11:48:50;6.33;;;2.80;;
61911;SDS011;49973;52.084;5.412;2023-07-13T11:51:21;9.50;;;2.47;;
61911;SDS011;49973;52.084;5.412;2023-07-13T11:53:53;10.77;;;3.40;;
61911;SDS011;49973;52.084;5.412;2023-07-13T11:56:24;6.23;;;2.50;;
61911;SDS011;49973;52.084;5.412;2023-07-13T11:58:56;6.93;;;2.30;;
61911;SDS011;49973;52.084;5.412;2023-07-13T12:01:27;3.60;;;2.10;;
61911;SDS011;49973;52.084;5.412;2023-07-13T12:04:02;4.10;;;2.17;;
61911;SDS011;49973;52.084;5.412;2023-07-13T12:06:34;6.30;;;2.93;;
61911;SDS011;49973;52.084;5.412;2023-07-13T12:09:10;10.37;;;3.20;;
61911;SDS011;49973;52.084;5.412;2023-07-13T12:11:41;4.00;;;2.80;;
61911;SDS011;49973;52.084;5.412;2023-07-13T12:14:14;5.27;;;3.03;;
61911;SDS011;49973;52.084;5.412;2023-07-13T12:16:45;7.83;;;3.47;;
61911;SDS011;49973;52.084;5.412;2023-07-13T12:19:17;8.07;;;3.03;;
61911;SDS011;49973;52.084;5.412;2023-07-13T12:21:49;11.87;;;3.27;;
61911;SDS011;49973;52.084;5.412;2023-07-13T12:24:21;11.63;;;3.47;;
61911;SDS011;49973;52.084;5.412;2023-07-13T12:26:51;5.60;;;2.83;;
61911;SDS011;49973;52.084;5.412;2023-07-13T12:29:23;6.00;;;3.27;;
61911;SDS011;49973;52.084;5.412;2023-07-13T12:31:52;4.73;;;2.40;;
61911;SDS011;49973;52.084;5.412;2023-07-13T12:34:22;4.43;;;2.20;;
61911;SDS011;49973;52.084;5.412;2023-07-13T12:36:53;4.30;;;2.10;;
61911;SDS011;49973;52.084;5.412;2023-07-13T12:39:33;2.93;;;2.17;;
61911;SDS011;49973;52.084;5.412;2023-07-13T12:42:13;4.30;;;2.20;;
61911;SDS011;49973;52.084;5.412;2023-07-13T12:44:49;8.13;;;2.30;;
61911;SDS011;49973;52.084;5.412;2023-07-13T12:47:21;8.27;;;2.83;;
61911;SDS011;49973;52.084;5.412;2023-07-13T12:49:53;3.17;;;2.03;;
61911;SDS011;49973;52.084;5.412;2023-07-13T12:52:23;3.57;;;2.30;;
61911;SDS011;49973;52.084;5.412;2023-07-13T12:54:57;6.83;;;2.50;;
61911;SDS011;49973;52.084;5.412;2023-07-13T12:57:31;6.97;;;2.00;;
61911;SDS011;49973;52.084;5.412;2023-07-13T13:00:01;3.17;;;1.80;;
61911;SDS011;49973;52.084;5.412;2023-07-13T13:02:33;5.90;;;2.03;;
61911;SDS011;49973;52.084;5.412;2023-07-13T13:05:03;4.70;;;2.10;;
61911;SDS011;49973;52.084;5.412;2023-07-13T13:07:33;5.33;;;1.80;;
61911;SDS011;49973;52.084;5.412;2023-07-13T13:10:11;2.97;;;1.53;;
61911;SDS011;49973;52.084;5.412;2023-07-13T13:12:44;3.93;;;1.70;;
61911;SDS011;49973;52.084;5.412;2023-07-13T13:15:15;3.40;;;1.83;;
61911;SDS011;49973;52.084;5.412;2023-07-13T13:17:46;4.00;;;1.73;;
61911;SDS011;49973;52.084;5.412;2023-07-13T13:20:17;5.30;;;1.60;;
61911;SDS011;49973;52.084;5.412;2023-07-13T13:22:48;7.13;;;1.60;;
61911;SDS011;49973;52.084;5.412;2023-07-13T13:25:17;3.67;;;2.17;;
61911;SDS011;49973;52.084;5.412;2023-07-13T13:27:47;5.10;;;1.60;;
61911;SDS011;49973;52.084;5.412;2023-07-13T13:30:18;5.22;;;1.70;;
61911;SDS011;49973;52.084;5.412;2023-07-13T13:32:48;3.30;;;1.77;;
61911;SDS011;49973;52.084;5.412;2023-07-13T13:35:18;6.73;;;1.73;;
61911;SDS011;49973;52.084;5.412;2023-07-13T13:37:50;4.83;;;2.60;;
61911;SDS011;49973;52.084;5.412;2023-07-13T13:40:19;2.80;;;1.90;;
61911;SDS011;49973;52.084;5.412;2023-07-13T13:42:50;3.57;;;2.00;;
61911;SDS011;49973;52.084;5.412;2023-07-13T13:45:21;3.30;;;1.23;;
61911;SDS011;49973;52.084;5.412;2023-07-13T13:47:51;2.23;;;1.50;;
61911;SDS011;49973;52.084;5.412;2023-07-13T13:50:21;4.50;;;1.53;;
61911;SDS011;49973;52.084;5.412;2023-07-13T13:52:51;2.53;;;1.53;;
61911;SDS011;49973;52.084;5.412;2023-07-13T13:55:20;4.17;;;1.97;;
61911;SDS011;49973;52.084;5.412;2023-07-13T13:57:51;4.30;;;1.80;;
61911;SDS011;49973;52.084;5.412;2023-07-13T14:00:22;3.57;;;1.80;;
61911;SDS011;49973;52.084;5.412;2023-07-13T14:02:51;4.73;;;1.70;;
61911;SDS011;49973;52.084;5.412;2023-07-13T14:05:24;2.50;;;1.80;;
61911;SDS011;49973;52.084;5.412;2023-07-13T14:07:54;2.73;;;1.73;;
61911;SDS011;49973;52.084;5.412;2023-07-13T14:10:23;3.70;;;1.70;;
61911;SDS011;49973;52.084;5.412;2023-07-13T14:12:53;5.27;;;1.90;;
61911;SDS011;49973;52.084;5.412;2023-07-13T14:15:26;3.23;;;1.73;;
61911;SDS011;49973;52.084;5.412;2023-07-13T14:17:58;7.73;;;2.03;;
61911;SDS011;49973;52.084;5.412;2023-07-13T14:20:27;2.70;;;1.60;;
61911;SDS011;49973;52.084;5.412;2023-07-13T14:22:59;5.23;;;1.73;;
61911;SDS011;49973;52.084;5.412;2023-07-13T14:25:28;6.47;;;2.37;;
61911;SDS011;49973;52.084;5.412;2023-07-13T14:27:57;3.10;;;1.73;;
61911;SDS011;49973;52.084;5.412;2023-07-13T14:30:32;4.10;;;1.67;;
61911;SDS011;49973;52.084;5.412;2023-07-13T14:33:07;4.83;;;1.93;;
61911;SDS011;49973;52.084;5.412;2023-07-13T14:35:38;2.20;;;1.63;;
61911;SDS011;49973;52.084;5.412;2023-07-13T14:38:07;4.07;;;1.90;;
61911;SDS011;49973;52.084;5.412;2023-07-13T14:40:39;3.30;;;1.80;;
61911;SDS011;49973;52.084;5.412;2023-07-13T14:43:11;5.97;;;1.93;;
61911;SDS011;49973;52.084;5.412;2023-07-13T14:45:46;9.50;;;1.90;;
61911;SDS011;49973;52.084;5.412;2023-07-13T14:48:18;3.73;;;1.77;;
61911;SDS011;49973;52.084;5.412;2023-07-13T14:50:50;4.80;;;1.80;;
61911;SDS011;49973;52.084;5.412;2023-07-13T14:53:22;4.23;;;1.53;;
61911;SDS011;49973;52.084;5.412;2023-07-13T14:55:53;3.90;;;1.60;;
61911;SDS011;49973;52.084;5.412;2023-07-13T14:58:25;3.17;;;1.70;;
61911;SDS011;49973;52.084;5.412;2023-07-13T15:00:59;3.10;;;1.90;;
61911;SDS011;49973;52.084;5.412;2023-07-13T15:03:28;4.90;;;1.50;;
61911;SDS011;49973;52.084;5.412;2023-07-13T15:05:57;5.37;;;1.70;;
61911;SDS011;49973;52.084;5.412;2023-07-13T15:08:30;1.90;;;1.43;;
61911;SDS011;49973;52.084;5.412;2023-07-13T15:10:59;3.63;;;1.80;;
61911;SDS011;49973;52.084;5.412;2023-07-13T15:13:28;6.53;;;1.63;;
61911;SDS011;49973;52.084;5.412;2023-07-13T15:15:59;7.17;;;1.67;;
61911;SDS011;49973;52.084;5.412;2023-07-13T15:18:29;5.73;;;1.93;;